sensor_id;sensor_type;location;lat;lon;timestamp;pressure;altitude;pressure_sealevel;temperature;humidity
70833;BME280;71099;59.528;17.886;2023-08-01T00:01:26;99499.91;;;14.46;85.57
70833;BME280;71099;59.528;17.886;2023-08-01T00:03:51;99507.91;;;14.45;85.49
70833;BME280;71099;59.528;17.886;2023-08-01T00:06:17;99498.50;;;14.44;85.73
70833;BME280;71099;59.528;17.886;2023-08-01T00:08:42;99501.28;;;14.42;85.72
70833;BME280;71099;59.528;17.886;2023-08-01T00:11:07;99498.69;;;14.42;85.78
70833;BME280;71099;59.528;17.886;2023-08-01T00:13:35;99495.31;;;14.42;85.93
70833;BME280;71099;59.528;17.886;2023-08-01T00:16:00;99493.72;;;14.41;86.17
70833;BME280;71099;59.528;17.886;2023-08-01T00:18:26;99489.69;;;14.38;86.63
70833;BME280;71099;59.528;17.886;2023-08-01T00:20:54;99480.50;;;14.36;86.98
70833;BME280;71099;59.528;17.886;2023-08-01T00:23:19;99482.91;;;14.37;86.82
70833;BME280;71099;59.528;17.886;2023-08-01T00:25:45;99488.13;;;14.37;87.36
70833;BME280;71099;59.528;17.886;2023-08-01T00:28:16;99483.47;;;14.33;87.60
70833;BME280;71099;59.528;17.886;2023-08-01T00:30:42;99485.91;;;14.34;87.66
70833;BME280;71099;59.528;17.886;2023-08-01T00:33:07;99488.28;;;14.36;87.72
70833;BME280;71099;59.528;17.886;2023-08-01T00:35:33;99494.88;;;14.38;87.72
70833;BME280;71099;59.528;17.886;2023-08-01T00:37:58;99489.69;;;14.38;87.59
70833;BME280;71099;59.528;17.886;2023-08-01T00:40:23;99485.53;;;14.37;87.60
70833;BME280;71099;59.528;17.886;2023-08-01T00:42:54;99484.09;;;14.35;87.89
70833;BME280;71099;59.528;17.886;2023-08-01T00:45:22;99477.47;;;14.32;87.72
70833;BME280;71099;59.528;17.886;2023-08-01T00:47:53;99485.09;;;14.34;87.81
70833;BME280;71099;59.528;17.886;2023-08-01T00:50:19;99487.06;;;14.32;88.09
70833;BME280;71099;59.528;17.886;2023-08-01T00:52:46;99480.06;;;14.32;87.87
70833;BME280;71099;59.528;17.886;2023-08-01T00:55:12;99476.69;;;14.32;88.00
70833;BME280;71099;59.528;17.886;2023-08-01T00:57:38;99477.47;;;14.32;88.07
70833;BME280;71099;59.528;17.886;2023-08-01T01:00:04;99479.09;;;14.33;87.96
70833;BME280;71099;59.528;17.886;2023-08-01T01:02:30;99480.72;;;14.34;88.15
70833;BME280;71099;59.528;17.886;2023-08-01T01:04:55;99468.69;;;14.33;87.84
70833;BME280;71099;59.528;17.886;2023-08-01T01:07:21;99467.75;;;14.34;88.22
70833;BME280;71099;59.528;17.886;2023-08-01T01:09:47;99467.91;;;14.33;88.21
70833;BME280;71099;59.528;17.886;2023-08-01T01:12:12;99462.72;;;14.33;88.18
70833;BME280;71099;59.528;17.886;2023-08-01T01:14:38;99456.53;;;14.34;88.15
70833;BME280;71099;59.528;17.886;2023-08-01T01:17:03;99454.34;;;14.31;88.60
70833;BME280;71099;59.528;17.886;2023-08-01T01:19:29;99451.75;;;14.31;88.69
70833;BME280;71099;59.528;17.886;2023-08-01T01:21:55;99442.75;;;14.33;88.59
70833;BME280;71099;59.528;17.886;2023-08-01T01:24:22;99442.94;;;14.32;88.41
70833;BME280;71099;59.528;17.886;2023-08-01T01:26:48;99441.13;;;14.32;88.19
70833;BME280;71099;59.528;17.886;2023-08-01T01:29:15;99440.56;;;14.30;88.18
70833;BME280;71099;59.528;17.886;2023-08-01T01:31:41;99433.16;;;14.27;88.03
70833;BME280;71099;59.528;17.886;2023-08-01T01:34:07;99429.16;;;14.25;88.00
70833;BME280;71099;59.528;17.886;2023-08-01T01:36:32;99428.97;;;14.26;87.91
70833;BME280;71099;59.528;17.886;2023-08-01T01:38:59;99434.16;;;14.26;87.83
70833;BME280;71099;59.528;17.886;2023-08-01T01:41:24;99426.38;;;14.26;87.93
70833;BME280;71099;59.528;17.886;2023-08-01T01:43:50;99419.56;;;14.25;87.70
70833;BME280;71099;59.528;17.886;2023-08-01T01:46:16;99419.34;;;14.20;87.69
70833;BME280;71099;59.528;17.886;2023-08-01T01:48:41;99431.56;;;14.19;87.56
70833;BME280;71099;59.528;17.886;2023-08-01T01:51:07;99417.16;;;14.17;87.67
70833;BME280;71099;59.528;17.886;2023-08-01T01:53:33;99416.16;;;14.18;87.46
70833;BME280;71099;59.528;17.886;2023-08-01T01:55:58;99413.75;;;14.16;87.60
70833;BME280;71099;59.528;17.886;2023-08-01T01:58:23;99399.38;;;14.07;87.60
70833;BME280;71099;59.528;17.886;2023-08-01T02:00:49;99409.19;;;14.12;87.67
70833;BME280;71099;59.528;17.886;2023-08-01T02:03:14;99404.34;;;14.09;87.43
70833;BME280;71099;59.528;17.886;2023-08-01T02:05:40;99408.78;;;14.08;87.62
70833;BME280;71099;59.528;17.886;2023-08-01T02:08:06;99394.78;;;14.03;87.75
70833;BME280;71099;59.528;17.886;2023-08-01T02:10:32;99390.38;;;14.03;87.59
70833;BME280;71099;59.528;17.886;2023-08-01T02:12:57;99398.75;;;13.99;87.75
70833;BME280;71099;59.528;17.886;2023-08-01T02:15:23;99392.34;;;13.95;87.74
70833;BME280;71099;59.528;17.886;2023-08-01T02:17:48;99391.38;;;13.96;87.71
70833;BME280;71099;59.528;17.886;2023-08-01T02:20:14;99391.38;;;13.96;87.53
70833;BME280;71099;59.528;17.886;2023-08-01T02:22:39;99384.78;;;13.93;87.65
70833;BME280;71099;59.528;17.886;2023-08-01T02:25:05;99385.59;;;13.94;87.58
70833;BME280;71099;59.528;17.886;2023-08-01T02:27:30;99392.56;;;13.93;87.35
70833;BME280;71099;59.528;17.886;2023-08-01T02:29:56;99385.94;;;13.84;87.73
70833;BME280;71099;59.528;17.886;2023-08-01T02:32:21;99379.97;;;13.84;87.88
70833;BME280;71099;59.528;17.886;2023-08-01T02:34:47;99385.34;;;13.82;87.44
70833;BME280;71099;59.528;17.886;2023-08-01T02:37:12;99376.78;;;13.82;87.83
70833;BME280;71099;59.528;17.886;2023-08-01T02:39:38;99379.16;;;13.83;87.73
70833;BME280;71099;59.528;17.886;2023-08-01T02:42:03;99382.13;;;13.80;87.79
70833;BME280;71099;59.528;17.886;2023-08-01T02:44:29;99377.75;;;13.81;88.04
70833;BME280;71099;59.528;17.886;2023-08-01T02:46:54;99371.19;;;13.78;88.04
70833;BME280;71099;59.528;17.886;2023-08-01T02:49:20;99375.56;;;13.78;88.15
70833;BME280;71099;59.528;17.886;2023-08-01T02:51:45;99375.56;;;13.78;88.21
70833;BME280;71099;59.528;17.886;2023-08-01T02:54:11;99363.00;;;13.75;88.31
70833;BME280;71099;59.528;17.886;2023-08-01T02:56:36;99366.16;;;13.77;88.19
70833;BME280;71099;59.528;17.886;2023-08-01T02:59:07;99365.59;;;13.75;88.12
70833;BME280;71099;59.528;17.886;2023-08-01T03:01:34;99369.97;;;13.74;87.94
70833;BME280;71099;59.528;17.886;2023-08-01T03:04:04;99367.19;;;13.76;87.70
70833;BME280;71099;59.528;17.886;2023-08-01T03:06:31;99366.38;;;13.75;87.86
70833;BME280;71099;59.528;17.886;2023-08-01T03:08:56;99365.59;;;13.75;88.02
70833;BME280;71099;59.528;17.886;2023-08-01T03:11:22;99360.41;;;13.75;87.75
70833;BME280;71099;59.528;17.886;2023-08-01T03:13:47;99361.19;;;13.75;87.75
70833;BME280;71099;59.528;17.886;2023-08-01T03:16:13;99355.41;;;13.73;87.93
70833;BME280;71099;59.528;17.886;2023-08-01T03:18:38;99359.41;;;13.76;87.85
70833;BME280;71099;59.528;17.886;2023-08-01T03:21:04;99355.22;;;13.75;87.78
70833;BME280;71099;59.528;17.886;2023-08-01T03:23:30;99342.03;;;13.69;87.63
70833;BME280;71099;59.528;17.886;2023-08-01T03:25:55;99348.63;;;13.72;87.71
70833;BME280;71099;59.528;17.886;2023-08-01T03:28:21;99342.63;;;13.72;87.61
70833;BME280;71099;59.528;17.886;2023-08-01T03:30:46;99358.78;;;13.74;87.57
70833;BME280;71099;59.528;17.886;2023-08-01T03:33:15;99348.41;;;13.74;87.72
70833;BME280;71099;59.528;17.886;2023-08-01T03:35:41;99353.59;;;13.74;87.56
70833;BME280;71099;59.528;17.886;2023-08-01T03:38:06;99350.78;;;13.68;87.84
70833;BME280;71099;59.528;17.886;2023-08-01T03:40:31;99354.41;;;13.67;87.94
70833;BME280;71099;59.528;17.886;2023-08-01T03:42:57;99347.59;;;13.60;87.89
70833;BME280;71099;59.528;17.886;2023-08-01T03:45:22;99342.00;;;13.56;88.36
70833;BME280;71099;59.528;17.886;2023-08-01T03:47:48;99344.59;;;13.56;88.81
70833;BME280;71099;59.528;17.886;2023-08-01T03:50:13;99336.41;;;13.59;88.89
70833;BME280;71099;59.528;17.886;2023-08-01T03:52:39;99331.22;;;13.59;89.06
70833;BME280;71099;59.528;17.886;2023-08-01T03:55:04;99334.41;;;13.61;89.23
70833;BME280;71099;59.528;17.886;2023-08-01T03:57:30;99337.81;;;13.62;89.44
70833;BME280;71099;59.528;17.886;2023-08-01T03:59:58;99341.22;;;13.62;89.49
70833;BME280;71099;59.528;17.886;2023-08-01T04:02:24;99337.22;;;13.60;89.63
70833;BME280;71099;59.528;17.886;2023-08-01T04:04:52;99339.22;;;13.64;89.91
70833;BME280;71099;59.528;17.886;2023-08-01T04:07:18;99339.63;;;13.68;89.86
70833;BME280;71099;59.528;17.886;2023-08-01T04:09:43;99337.22;;;13.66;89.86
70833;BME280;71099;59.528;17.886;2023-08-01T04:12:09;99340.84;;;13.72;89.86
70833;BME280;71099;59.528;17.886;2023-08-01T04:14:34;99338.66;;;13.76;89.70
70833;BME280;71099;59.528;17.886;2023-08-01T04:17:00;99334.06;;;13.78;89.81
70833;BME280;71099;59.528;17.886;2023-08-01T04:19:25;99333.47;;;13.76;89.84
70833;BME280;71099;59.528;17.886;2023-08-01T04:21:50;99320.50;;;13.76;89.85
70833;BME280;71099;59.528;17.886;2023-08-01T04:24:16;99328.88;;;13.78;89.94
70833;BME280;71099;59.528;17.886;2023-08-01T04:26:41;99326.06;;;13.73;89.65
70833;BME280;71099;59.528;17.886;2023-08-01T04:29:07;99331.25;;;13.73;89.94
70833;BME280;71099;59.528;17.886;2023-08-01T04:31:32;99325.69;;;13.76;89.98
70833;BME280;71099;59.528;17.886;2023-08-01T04:33:58;99319.09;;;13.80;89.60
70833;BME280;71099;59.528;17.886;2023-08-01T04:36:23;99312.94;;;13.81;90.05
70833;BME280;71099;59.528;17.886;2023-08-01T04:38:49;99312.53;;;13.77;90.83
70833;BME280;71099;59.528;17.886;2023-08-01T04:41:14;99303.34;;;13.81;90.89
70833;BME280;71099;59.528;17.886;2023-08-01T04:43:40;99307.75;;;13.87;91.08
70833;BME280;71099;59.528;17.886;2023-08-01T04:46:06;99305.19;;;13.94;91.03
70833;BME280;71099;59.528;17.886;2023-08-01T04:48:31;99310.16;;;14.02;90.90
70833;BME280;71099;59.528;17.886;2023-08-01T04:50:56;99308.56;;;14.07;91.05
70833;BME280;71099;59.528;17.886;2023-08-01T04:53:22;99308.00;;;14.12;91.45
70833;BME280;71099;59.528;17.886;2023-08-01T04:55:47;99307.19;;;14.18;91.34
70833;BME280;71099;59.528;17.886;2023-08-01T04:58:13;99295.81;;;14.26;91.85
70833;BME280;71099;59.528;17.886;2023-08-01T05:00:41;99296.22;;;14.36;91.92
70833;BME280;71099;59.528;17.886;2023-08-01T05:03:06;99299.41;;;14.44;92.35
70833;BME280;71099;59.528;17.886;2023-08-01T05:05:31;99292.63;;;14.56;92.55
70833;BME280;71099;59.528;17.886;2023-08-01T05:07:57;99299.38;;;14.71;92.52
70833;BME280;71099;59.528;17.886;2023-08-01T05:10:22;99300.56;;;14.81;92.37
70833;BME280;71099;59.528;17.886;2023-08-01T05:12:48;99303.91;;;14.95;92.07
70833;BME280;71099;59.528;17.886;2023-08-01T05:15:13;99300.25;;;15.09;91.28
70833;BME280;71099;59.528;17.886;2023-08-01T05:17:39;99300.00;;;15.24;90.74
70833;BME280;71099;59.528;17.886;2023-08-01T05:20:04;99296.38;;;15.31;90.09
70833;BME280;71099;59.528;17.886;2023-08-01T05:22:30;99289.91;;;15.47;89.52
70833;BME280;71099;59.528;17.886;2023-08-01T05:24:56;99291.06;;;15.57;88.48
70833;BME280;71099;59.528;17.886;2023-08-01T05:27:21;99291.59;;;15.73;87.90
70833;BME280;71099;59.528;17.886;2023-08-01T05:29:47;99296.94;;;15.78;86.85
70833;BME280;71099;59.528;17.886;2023-08-01T05:32:12;99299.28;;;15.86;86.59
70833;BME280;71099;59.528;17.886;2023-08-01T05:34:37;99302.28;;;15.89;86.07
70833;BME280;71099;59.528;17.886;2023-08-01T05:37:03;99299.03;;;15.94;86.02
70833;BME280;71099;59.528;17.886;2023-08-01T05:39:28;99293.78;;;16.00;86.12
70833;BME280;71099;59.528;17.886;2023-08-01T05:41:54;99302.03;;;15.97;86.52
70833;BME280;71099;59.528;17.886;2023-08-01T05:44:19;99298.19;;;16.00;86.73
70833;BME280;71099;59.528;17.886;2023-08-01T05:46:44;99294.38;;;16.02;86.84
70833;BME280;71099;59.528;17.886;2023-08-01T05:49:10;99292.72;;;16.08;86.85
70833;BME280;71099;59.528;17.886;2023-08-01T05:51:35;99285.09;;;16.13;86.79
70833;BME280;71099;59.528;17.886;2023-08-01T05:54:01;99293.03;;;16.18;86.42
70833;BME280;71099;59.528;17.886;2023-08-01T05:56:26;99293.22;;;16.23;86.27
70833;BME280;71099;59.528;17.886;2023-08-01T05:58:51;99289.75;;;16.29;85.33
70833;BME280;71099;59.528;17.886;2023-08-01T06:01:17;99282.84;;;16.41;84.68
70833;BME280;71099;59.528;17.886;2023-08-01T06:03:42;99287.13;;;16.54;84.80
70833;BME280;71099;59.528;17.886;2023-08-01T06:06:08;99281.38;;;16.70;84.26
70833;BME280;71099;59.528;17.886;2023-08-01T06:08:33;99274.59;;;16.69;82.83
70833;BME280;71099;59.528;17.886;2023-08-01T06:10:59;99279.66;;;16.82;81.67
70833;BME280;71099;59.528;17.886;2023-08-01T06:13:24;99278.31;;;16.91;81.66
70833;BME280;71099;59.528;17.886;2023-08-01T06:15:50;99280.72;;;16.93;81.86
70833;BME280;71099;59.528;17.886;2023-08-01T06:18:15;99283.34;;;16.93;81.10
70833;BME280;71099;59.528;17.886;2023-08-01T06:20:40;99279.25;;;17.15;81.52
70833;BME280;71099;59.528;17.886;2023-08-01T06:23:06;99277.63;;;17.32;80.67
70833;BME280;71099;59.528;17.886;2023-08-01T06:25:31;99274.41;;;17.48;79.34
70833;BME280;71099;59.528;17.886;2023-08-01T06:27:57;99277.00;;;17.67;79.11
70833;BME280;71099;59.528;17.886;2023-08-01T06:30:22;99284.75;;;17.85;78.71
70833;BME280;71099;59.528;17.886;2023-08-01T06:32:47;99287.16;;;17.98;77.75
70833;BME280;71099;59.528;17.886;2023-08-01T06:35:13;99281.66;;;17.76;76.29
70833;BME280;71099;59.528;17.886;2023-08-01T06:37:38;99281.78;;;17.70;76.54
70833;BME280;71099;59.528;17.886;2023-08-01T06:40:04;99291.22;;;17.82;76.64
70833;BME280;71099;59.528;17.886;2023-08-01T06:42:30;99277.38;;;17.82;76.31
70833;BME280;71099;59.528;17.886;2023-08-01T06:44:56;99283.84;;;17.91;76.41
70833;BME280;71099;59.528;17.886;2023-08-01T06:47:21;99284.19;;;17.83;75.90
70833;BME280;71099;59.528;17.886;2023-08-01T06:49:47;99281.69;;;17.88;75.93
70833;BME280;71099;59.528;17.886;2023-08-01T06:52:12;99280.91;;;17.76;74.96
70833;BME280;71099;59.528;17.886;2023-08-01T06:54:38;99286.13;;;17.76;75.33
70833;BME280;71099;59.528;17.886;2023-08-01T06:57:03;99281.00;;;17.81;75.68
70833;BME280;71099;59.528;17.886;2023-08-01T06:59:29;99282.72;;;17.87;75.51
70833;BME280;71099;59.528;17.886;2023-08-01T07:01:55;99285.81;;;17.95;75.52
70833;BME280;71099;59.528;17.886;2023-08-01T07:04:20;99292.28;;;17.93;75.31
70833;BME280;71099;59.528;17.886;2023-08-01T07:06:46;99290.91;;;18.02;75.49
70833;BME280;71099;59.528;17.886;2023-08-01T07:09:11;99285.59;;;18.09;74.90
70833;BME280;71099;59.528;17.886;2023-08-01T07:11:37;99280.28;;;18.15;75.50
70833;BME280;71099;59.528;17.886;2023-08-01T07:14:02;99283.91;;;18.14;76.32
70833;BME280;71099;59.528;17.886;2023-08-01T07:16:27;99279.00;;;18.06;74.64
70833;BME280;71099;59.528;17.886;2023-08-01T07:18:55;99283.44;;;18.05;74.87
70833;BME280;71099;59.528;17.886;2023-08-01T07:21:20;99274.03;;;18.04;75.08
70833;BME280;71099;59.528;17.886;2023-08-01T07:23:45;99278.00;;;18.07;74.84
70833;BME280;71099;59.528;17.886;2023-08-01T07:26:13;99283.91;;;18.14;74.78
70833;BME280;71099;59.528;17.886;2023-08-01T07:28:38;99276.19;;;18.19;74.89
70833;BME280;71099;59.528;17.886;2023-08-01T07:31:06;99270.97;;;18.19;74.11
70833;BME280;71099;59.528;17.886;2023-08-01T07:33:33;99277.88;;;18.25;74.41
70833;BME280;71099;59.528;17.886;2023-08-01T07:35:59;99278.03;;;18.30;74.64
70833;BME280;71099;59.528;17.886;2023-08-01T07:38:24;99275.16;;;18.32;74.72
70833;BME280;71099;59.528;17.886;2023-08-01T07:40:52;99271.88;;;18.36;74.62
70833;BME280;71099;59.528;17.886;2023-08-01T07:43:18;99281.88;;;18.39;73.89
70833;BME280;71099;59.528;17.886;2023-08-01T07:45:44;99276.75;;;18.44;74.32
70833;BME280;71099;59.528;17.886;2023-08-01T07:48:10;99279.03;;;18.29;74.90
70833;BME280;71099;59.528;17.886;2023-08-01T07:50:35;99275.75;;;18.22;74.83
70833;BME280;71099;59.528;17.886;2023-08-01T07:53:01;99268.78;;;18.28;74.16
70833;BME280;71099;59.528;17.886;2023-08-01T07:55:26;99273.69;;;18.36;74.02
70833;BME280;71099;59.528;17.886;2023-08-01T07:57:52;99268.25;;;18.37;73.80
70833;BME280;71099;59.528;17.886;2023-08-01T08:00:18;99272.00;;;18.53;73.50
70833;BME280;71099;59.528;17.886;2023-08-01T08:02:44;99264.41;;;18.51;73.32
70833;BME280;71099;59.528;17.886;2023-08-01T08:05:10;99268.16;;;18.56;73.04
70833;BME280;71099;59.528;17.886;2023-08-01T08:07:37;99265.28;;;18.69;72.60
70833;BME280;71099;59.528;17.886;2023-08-01T08:10:03;99263.13;;;18.77;72.84
70833;BME280;71099;59.528;17.886;2023-08-01T08:12:29;99266.63;;;18.83;71.66
70833;BME280;71099;59.528;17.886;2023-08-01T08:14:54;99267.41;;;18.95;71.43
70833;BME280;71099;59.528;17.886;2023-08-01T08:17:19;99258.19;;;19.04;71.89
70833;BME280;71099;59.528;17.886;2023-08-01T08:19:45;99264.06;;;19.11;70.39
70833;BME280;71099;59.528;17.886;2023-08-01T08:22:10;99256.28;;;19.16;70.79
70833;BME280;71099;59.528;17.886;2023-08-01T08:24:36;99253.41;;;19.29;70.67
70833;BME280;71099;59.528;17.886;2023-08-01T08:27:01;99253.34;;;19.41;69.33
70833;BME280;71099;59.528;17.886;2023-08-01T08:29:27;99252.84;;;19.56;68.77
70833;BME280;71099;59.528;17.886;2023-08-01T08:31:52;99247.06;;;19.54;67.38
70833;BME280;71099;59.528;17.886;2023-08-01T08:34:18;99254.53;;;19.62;68.21
70833;BME280;71099;59.528;17.886;2023-08-01T08:36:43;99254.75;;;19.60;67.74
70833;BME280;71099;59.528;17.886;2023-08-01T08:39:08;99257.22;;;19.67;68.05
70833;BME280;71099;59.528;17.886;2023-08-01T08:41:45;99251.66;;;19.63;68.32
70833;BME280;71099;59.528;17.886;2023-08-01T08:44:11;99262.47;;;19.67;69.00
70833;BME280;71099;59.528;17.886;2023-08-01T08:46:42;99249.03;;;19.46;68.67
70833;BME280;71099;59.528;17.886;2023-08-01T08:49:08;99252.94;;;19.61;68.96
70833;BME280;71099;59.528;17.886;2023-08-01T08:51:36;99249.56;;;19.77;67.46
70833;BME280;71099;59.528;17.886;2023-08-01T08:54:02;99239.06;;;19.93;66.99
70833;BME280;71099;59.528;17.886;2023-08-01T08:56:29;99237.78;;;19.96;66.61
70833;BME280;71099;59.528;17.886;2023-08-01T08:58:55;99238.28;;;19.93;65.80
70833;BME280;71099;59.528;17.886;2023-08-01T09:01:21;99231.63;;;20.02;65.71
70833;BME280;71099;59.528;17.886;2023-08-01T09:03:46;99239.63;;;20.12;64.89
70833;BME280;71099;59.528;17.886;2023-08-01T09:06:15;99240.19;;;20.14;64.38
70833;BME280;71099;59.528;17.886;2023-08-01T09:08:50;99244.09;;;20.28;65.15
70833;BME280;71099;59.528;17.886;2023-08-01T09:11:17;99236.44;;;20.27;64.47
70833;BME280;71099;59.528;17.886;2023-08-01T09:13:42;99230.41;;;20.43;63.64
70833;BME280;71099;59.528;17.886;2023-08-01T09:16:09;99234.56;;;20.61;63.78
70833;BME280;71099;59.528;17.886;2023-08-01T09:18:35;99227.31;;;20.68;63.38
70833;BME280;71099;59.528;17.886;2023-08-01T09:21:00;99226.19;;;20.85;62.88
70833;BME280;71099;59.528;17.886;2023-08-01T09:23:27;99219.13;;;20.86;61.91
70833;BME280;71099;59.528;17.886;2023-08-01T09:25:53;99215.09;;;21.00;62.42
70833;BME280;71099;59.528;17.886;2023-08-01T09:28:19;99219.84;;;21.03;61.30
70833;BME280;71099;59.528;17.886;2023-08-01T09:30:47;99220.94;;;21.07;63.25
70833;BME280;71099;59.528;17.886;2023-08-01T09:33:12;99230.31;;;21.03;61.49
70833;BME280;71099;59.528;17.886;2023-08-01T09:35:38;99234.19;;;20.95;61.15
70833;BME280;71099;59.528;17.886;2023-08-01T09:38:04;99234.13;;;20.90;63.89
70833;BME280;71099;59.528;17.886;2023-08-01T09:40:37;99232.47;;;20.84;66.53
70833;BME280;71099;59.528;17.886;2023-08-01T09:43:02;99232.25;;;20.64;69.19
70833;BME280;71099;59.528;17.886;2023-08-01T09:45:27;99235.31;;;20.23;70.03
70833;BME280;71099;59.528;17.886;2023-08-01T09:47:53;99248.84;;;19.98;70.17
70833;BME280;71099;59.528;17.886;2023-08-01T09:50:23;99249.13;;;19.85;70.72
70833;BME280;71099;59.528;17.886;2023-08-01T09:52:49;99247.88;;;19.71;71.62
70833;BME280;71099;59.528;17.886;2023-08-01T09:55:26;99241.19;;;19.46;72.49
70833;BME280;71099;59.528;17.886;2023-08-01T09:57:57;99238.56;;;19.46;73.39
70833;BME280;71099;59.528;17.886;2023-08-01T10:00:23;99233.56;;;19.45;75.16
70833;BME280;71099;59.528;17.886;2023-08-01T10:02:50;99232.47;;;19.58;76.16
70833;BME280;71099;59.528;17.886;2023-08-01T10:05:18;99229.44;;;19.49;76.04
70833;BME280;71099;59.528;17.886;2023-08-01T10:07:44;99228.81;;;19.42;74.76
70833;BME280;71099;59.528;17.886;2023-08-01T10:10:11;99226.03;;;19.48;73.97
70833;BME280;71099;59.528;17.886;2023-08-01T10:12:37;99225.34;;;19.70;71.69
70833;BME280;71099;59.528;17.886;2023-08-01T10:15:04;99222.97;;;19.85;73.98
70833;BME280;71099;59.528;17.886;2023-08-01T10:17:31;99220.13;;;20.03;75.88
70833;BME280;71099;59.528;17.886;2023-08-01T10:19:59;99212.31;;;20.08;73.68
70833;BME280;71099;59.528;17.886;2023-08-01T10:22:25;99206.19;;;20.19;74.43
70833;BME280;71099;59.528;17.886;2023-08-01T10:24:52;99208.25;;;20.34;71.91
70833;BME280;71099;59.528;17.886;2023-08-01T10:27:19;99199.88;;;20.54;74.01
70833;BME280;71099;59.528;17.886;2023-08-01T10:29:56;99207.03;;;20.85;73.27
70833;BME280;71099;59.528;17.886;2023-08-01T10:32:29;99202.75;;;21.01;72.20
70833;BME280;71099;59.528;17.886;2023-08-01T10:34:54;99202.66;;;21.12;71.15
70833;BME280;71099;59.528;17.886;2023-08-01T10:37:20;99205.81;;;21.14;67.99
70833;BME280;71099;59.528;17.886;2023-08-01T10:39:56;99205.47;;;21.32;67.41
70833;BME280;71099;59.528;17.886;2023-08-01T10:42:22;99199.25;;;21.43;67.26
70833;BME280;71099;59.528;17.886;2023-08-01T10:44:47;99199.19;;;21.33;66.93
70833;BME280;71099;59.528;17.886;2023-08-01T10:47:12;99191.38;;;21.43;66.65
70833;BME280;71099;59.528;17.886;2023-08-01T10:49:43;99198.00;;;21.46;68.62
70833;BME280;71099;59.528;17.886;2023-08-01T10:55:03;99196.19;;;21.52;66.21
70833;BME280;71099;59.528;17.886;2023-08-01T10:57:31;99185.75;;;21.62;67.01
70833;BME280;71099;59.528;17.886;2023-08-01T10:59:58;99186.84;;;21.66;67.71
70833;BME280;71099;59.528;17.886;2023-08-01T11:02:28;99183.13;;;21.57;64.62
70833;BME280;71099;59.528;17.886;2023-08-01T11:05:01;99184.19;;;21.61;65.15
70833;BME280;71099;59.528;17.886;2023-08-01T11:07:27;99188.75;;;21.38;62.53
70833;BME280;71099;59.528;17.886;2023-08-01T11:10:13;99183.63;;;21.54;63.87
70833;BME280;71099;59.528;17.886;2023-08-01T11:12:40;99196.25;;;21.62;65.36
70833;BME280;71099;59.528;17.886;2023-08-01T11:15:11;99184.69;;;21.58;64.68
70833;BME280;71099;59.528;17.886;2023-08-01T11:17:37;99185.31;;;21.70;66.30
70833;BME280;71099;59.528;17.886;2023-08-01T11:20:10;99186.81;;;21.61;64.11
70833;BME280;71099;59.528;17.886;2023-08-01T11:22:37;99188.38;;;21.57;60.26
70833;BME280;71099;59.528;17.886;2023-08-01T11:25:03;99182.03;;;21.53;60.47
70833;BME280;71099;59.528;17.886;2023-08-01T11:27:29;99178.91;;;21.56;60.98
70833;BME280;71099;59.528;17.886;2023-08-01T11:29:55;99186.25;;;21.54;61.94
70833;BME280;71099;59.528;17.886;2023-08-01T11:32:21;99181.56;;;21.61;61.73
70833;BME280;71099;59.528;17.886;2023-08-01T11:34:48;99184.28;;;21.71;62.03
70833;BME280;71099;59.528;17.886;2023-08-01T11:37:14;99184.56;;;21.74;63.12
70833;BME280;71099;59.528;17.886;2023-08-01T11:39:40;99181.09;;;21.69;63.61
70833;BME280;71099;59.528;17.886;2023-08-01T11:42:06;99186.91;;;21.76;64.28
70833;BME280;71099;59.528;17.886;2023-08-01T11:44:32;99182.09;;;21.63;61.14
70833;BME280;71099;59.528;17.886;2023-08-01T11:46:57;99185.75;;;21.62;60.38
70833;BME280;71099;59.528;17.886;2023-08-01T11:49:23;99191.00;;;21.57;62.82
70833;BME280;71099;59.528;17.886;2023-08-01T11:51:49;99177.28;;;21.50;62.01
70833;BME280;71099;59.528;17.886;2023-08-01T11:54:15;99190.34;;;21.44;62.50
70833;BME280;71099;59.528;17.886;2023-08-01T11:56:42;99185.31;;;21.38;62.33
70833;BME280;71099;59.528;17.886;2023-08-01T11:59:11;99187.34;;;21.31;62.01
70833;BME280;71099;59.528;17.886;2023-08-01T12:01:39;99188.38;;;21.30;62.80
70833;BME280;71099;59.528;17.886;2023-08-01T12:04:05;99190.78;;;21.31;62.36
70833;BME280;71099;59.528;17.886;2023-08-01T12:06:31;99190.13;;;21.19;62.78
70833;BME280;71099;59.528;17.886;2023-08-01T12:09:06;99193.25;;;21.16;62.43
70833;BME280;71099;59.528;17.886;2023-08-01T12:11:32;99186.41;;;21.15;63.72
70833;BME280;71099;59.528;17.886;2023-08-01T12:14:06;99183.59;;;21.00;62.49
70833;BME280;71099;59.528;17.886;2023-08-01T12:16:33;99183.31;;;20.96;62.53
70833;BME280;71099;59.528;17.886;2023-08-01T12:18:58;99187.38;;;21.09;61.35
70833;BME280;71099;59.528;17.886;2023-08-01T12:21:24;99185.78;;;21.08;63.96
70833;BME280;71099;59.528;17.886;2023-08-01T12:23:49;99185.78;;;21.08;64.52
70833;BME280;71099;59.528;17.886;2023-08-01T12:26:14;99191.25;;;21.02;63.92
70833;BME280;71099;59.528;17.886;2023-08-01T12:28:40;99187.94;;;20.89;60.88
70833;BME280;71099;59.528;17.886;2023-08-01T12:31:05;99187.25;;;20.99;61.66
70833;BME280;71099;59.528;17.886;2023-08-01T12:33:32;99183.66;;;21.05;59.09
70833;BME280;71099;59.528;17.886;2023-08-01T12:35:59;99188.75;;;20.90;60.02
70833;BME280;71099;59.528;17.886;2023-08-01T12:38:25;99187.16;;;20.89;60.10
70833;BME280;71099;59.528;17.886;2023-08-01T12:40:51;99186.16;;;20.95;62.45
70833;BME280;71099;59.528;17.886;2023-08-01T12:43:16;99182.28;;;20.98;61.03
70833;BME280;71099;59.528;17.886;2023-08-01T12:45:42;99192.16;;;20.90;59.51
70833;BME280;71099;59.528;17.886;2023-08-01T12:48:07;99190.22;;;20.81;59.98